Time;durP1;ratioP1;P1;durP2;ratioP2;P2;SDS_P1;SDS_P2;PMS_P1;PMS_P2;Temp;Humidity;BMP_temperature;BMP_pressure;BME280_temperature;BME280_humidity;BME280_pressure;Samples;Min_cycle;Max_cycle;Signal;HPM_P1;HPM_P2
2023/10/27 00:01:15;;;;;;;4.43;1.80;;;10.30;99.90;;;;;;5055458;28;20195;-90
2023/10/27 00:03:42;;;;;;;3.47;1.40;;;10.20;99.90;;;;;;5032094;28;20567;-90
2023/10/27 00:06:09;;;;;;;4.07;1.77;;;10.20;99.90;;;;;;5027559;28;20202;-90
2023/10/27 00:08:35;;;;;;;4.25;1.38;;;10.20;99.90;;;;;;5019694;28;20191;-90
2023/10/27 00:11:06;;;;;;;5.47;1.73;;;10.20;99.90;;;;;;5034799;28;20229;-90
2023/10/27 00:16:15;;;;;;;5.10;1.88;;;10.10;99.90;;;;;;5022781;28;20199;-91
2023/10/27 00:18:42;;;;;;;2.85;1.77;;;10.20;99.90;;;;;;5026896;28;20210;-90
2023/10/27 00:21:09;;;;;;;6.53;1.83;;;10.20;99.90;;;;;;5020141;28;20718;-90
2023/10/27 00:23:36;;;;;;;7.43;2.17;;;10.20;99.90;;;;;;5031068;28;20225;-90
2023/10/27 00:26:04;;;;;;;5.28;1.70;;;10.20;99.90;;;;;;5030868;28;20202;-91
2023/10/27 00:28:31;;;;;;;5.57;2.25;;;10.10;99.90;;;;;;5029469;28;20240;-91
2023/10/27 00:33:43;;;;;;;7.60;2.22;;;10.10;99.90;;;;;;5027034;28;20202;-91
2023/10/27 00:36:11;;;;;;;4.35;2.00;;;10.00;99.90;;;;;;5029286;28;20201;-91
2023/10/27 00:38:38;;;;;;;4.55;2.05;;;10.00;99.90;;;;;;5031279;28;20198;-91
2023/10/27 00:41:08;;;;;;;6.18;2.10;;;10.00;99.90;;;;;;5031439;28;20195;-91
2023/10/27 00:43:35;;;;;;;6.55;2.50;;;10.00;99.90;;;;;;5028847;28;20202;-91
2023/10/27 00:49:08;;;;;;;4.90;2.05;;;10.00;99.90;;;;;;5004841;28;20213;-91
2023/10/27 00:51:39;;;;;;;3.75;2.15;;;10.10;99.90;;;;;;5012038;28;20222;-91
2023/10/27 00:54:10;;;;;;;7.15;1.85;;;10.00;99.90;;;;;;5018786;28;20213;-91
2023/10/27 00:56:37;;;;;;;4.38;1.80;;;10.00;99.90;;;;;;5030012;28;20201;-91
2023/10/27 00:59:04;;;;;;;8.02;2.15;;;10.10;99.90;;;;;;5029107;28;20190;-91
2023/10/27 01:04:19;;;;;;;6.93;2.30;;;10.10;99.90;;;;;;5026428;28;22219;-91
2023/10/27 01:07:05;;;;;;;5.45;1.90;;;10.20;99.90;;;;;;5028880;28;20571;-91
2023/10/27 01:09:34;;;;;;;4.28;2.00;;;10.30;99.90;;;;;;5031234;28;20199;-91
2023/10/27 01:12:01;;;;;;;4.05;1.65;;;10.30;99.90;;;;;;5031559;28;20197;-91
2023/10/27 01:14:28;;;;;;;3.97;1.60;;;10.40;99.90;;;;;;5019358;28;20198;-91
2023/10/27 01:16:57;;;;;;;4.70;1.75;;;10.30;99.90;;;;;;5034949;28;20194;-91
2023/10/27 01:19:46;;;;;;;2.60;1.52;;;10.30;99.90;;;;;;5027895;28;20199;-91
2023/10/27 01:22:15;;;;;;;6.43;2.28;;;10.50;99.90;;;;;;5029077;28;21498;-91
2023/10/27 01:27:24;;;;;;;3.50;1.70;;;10.60;99.90;;;;;;5019868;28;20769;-91
2023/10/27 01:29:51;;;;;;;3.28;1.67;;;10.50;99.90;;;;;;5036804;28;20237;-91
2023/10/27 01:32:18;;;;;;;6.25;2.25;;;10.60;99.90;;;;;;5031981;28;20197;-91
2023/10/27 01:34:45;;;;;;;6.25;2.10;;;10.50;99.90;;;;;;5032080;28;20198;-91
2023/10/27 01:37:12;;;;;;;4.75;1.92;;;10.50;99.90;;;;;;5036036;28;20816;-91
2023/10/27 01:39:39;;;;;;;4.45;2.13;;;10.50;99.90;;;;;;5036724;28;20186;-91
2023/10/27 01:44:49;;;;;;;6.57;2.50;;;10.30;99.90;;;;;;5029065;28;20548;-91
2023/10/27 01:47:16;;;;;;;4.53;1.90;;;10.20;99.90;;;;;;5038145;28;20193;-91
2023/10/27 01:49:43;;;;;;;4.80;1.83;;;10.20;99.90;;;;;;5035535;28;20419;-91
2023/10/27 01:52:10;;;;;;;5.38;2.00;;;10.20;99.90;;;;;;5034740;28;20217;-91
2023/10/27 01:54:37;;;;;;;5.43;2.13;;;10.20;99.90;;;;;;5034513;28;20201;-91
2023/10/27 01:57:04;;;;;;;5.55;2.63;;;10.20;99.90;;;;;;5032015;28;20217;-91
2023/10/27 01:59:33;;;;;;;3.70;1.95;;;10.00;99.90;;;;;;5035721;28;20206;-91
2023/10/27 02:01:59;;;;;;;3.72;2.20;;;10.00;99.90;;;;;;5019843;28;20198;-91
2023/10/27 02:04:26;;;;;;;4.15;2.40;;;10.00;99.90;;;;;;5018143;28;20198;-91
2023/10/27 02:06:55;;;;;;;4.03;2.80;;;9.90;99.90;;;;;;5028735;28;20200;-91
2023/10/27 02:09:22;;;;;;;5.22;3.15;;;9.90;99.90;;;;;;5032532;28;20260;-91
2023/10/27 02:12:10;;;;;;;3.72;2.83;;;9.90;99.90;;;;;;5021492;28;20198;-91
2023/10/27 02:14:38;;;;;;;3.83;2.67;;;9.90;99.90;;;;;;5032795;28;20199;-91
2023/10/27 02:17:05;;;;;;;4.90;2.60;;;9.90;99.90;;;;;;5023561;28;20195;-91
2023/10/27 02:19:32;;;;;;;3.55;2.60;;;9.80;99.90;;;;;;5017624;28;20263;-91
2023/10/27 02:21:59;;;;;;;2.78;2.35;;;9.70;99.90;;;;;;5037388;28;20195;-91
2023/10/27 02:24:26;;;;;;;5.25;2.47;;;9.60;99.90;;;;;;5033714;28;20602;-91
2023/10/27 02:26:53;;;;;;;3.40;2.20;;;9.70;99.90;;;;;;5028508;28;20260;-91
2023/10/27 02:32:02;;;;;;;3.03;1.83;;;9.60;99.90;;;;;;4995710;28;20222;-91
2023/10/27 02:34:49;;;;;;;3.17;1.98;;;9.60;99.90;;;;;;4974332;28;20190;-91
2023/10/27 02:39:57;;;;;;;1.70;1.60;;;9.60;99.90;;;;;;5015772;28;20194;-91
2023/10/27 02:42:24;;;;;;;2.28;1.60;;;9.60;99.90;;;;;;5028176;28;20198;-91
2023/10/27 02:44:51;;;;;;;3.95;1.92;;;9.60;99.90;;;;;;5027850;28;20678;-91
2023/10/27 02:49:59;;;;;;;3.40;1.73;;;9.70;99.90;;;;;;5016368;28;20640;-91
2023/10/27 02:52:26;;;;;;;3.35;1.83;;;9.60;99.90;;;;;;5026089;28;20742;-91
2023/10/27 02:54:53;;;;;;;2.80;1.67;;;9.60;99.90;;;;;;5023243;28;20194;-92
2023/10/27 02:57:20;;;;;;;2.88;1.63;;;9.60;99.90;;;;;;5035301;28;20207;-91
2023/10/27 02:59:47;;;;;;;3.22;1.75;;;9.60;99.90;;;;;;5031211;28;20195;-91
2023/10/27 03:02:14;;;;;;;3.20;1.60;;;9.50;99.90;;;;;;5015113;28;20210;-91
2023/10/27 03:07:23;;;;;;;3.70;1.80;;;9.50;99.90;;;;;;5015545;28;20218;-91
2023/10/27 03:09:50;;;;;;;3.22;2.00;;;9.50;99.90;;;;;;5033850;28;20195;-92
2023/10/27 03:12:17;;;;;;;4.80;1.70;;;9.60;99.90;;;;;;5035496;28;20218;-91
2023/10/27 03:14:44;;;;;;;5.20;2.20;;;9.60;99.90;;;;;;5039626;28;20205;-91
2023/10/27 03:17:11;;;;;;;3.83;2.08;;;9.60;99.90;;;;;;5023416;28;20552;-90
2023/10/27 03:19:38;;;;;;;4.10;2.05;;;9.60;99.90;;;;;;5031174;28;20571;-91
2023/10/27 03:22:07;;;;;;;3.78;1.80;;;9.60;99.90;;;;;;5034768;28;20203;-91
2023/10/27 03:27:15;;;;;;;2.53;2.00;;;9.50;99.90;;;;;;5017910;28;20190;-90
2023/10/27 03:29:43;;;;;;;3.47;1.90;;;9.50;99.90;;;;;;5030926;28;20777;-90
2023/10/27 03:32:10;;;;;;;2.72;2.10;;;9.50;99.90;;;;;;5031812;28;20682;-91
2023/10/27 03:34:36;;;;;;;3.90;2.13;;;9.40;99.90;;;;;;5029954;28;20226;-91
2023/10/27 03:37:04;;;;;;;4.32;2.47;;;9.50;99.90;;;;;;5035137;28;20203;-90
2023/10/27 03:39:32;;;;;;;3.85;2.45;;;9.40;99.90;;;;;;5033503;28;20204;-90
2023/10/27 03:41:59;;;;;;;7.45;2.90;;;9.40;99.90;;;;;;5031503;28;20286;-90
2023/10/27 03:44:26;;;;;;;4.80;2.75;;;9.50;99.90;;;;;;5030698;28;20205;-90
2023/10/27 03:46:52;;;;;;;4.40;3.05;;;9.40;99.90;;;;;;5028941;28;20639;-90
2023/10/27 03:49:19;;;;;;;4.35;3.20;;;9.40;99.90;;;;;;5031156;28;20204;-90
2023/10/27 03:51:46;;;;;;;6.57;3.08;;;9.40;99.90;;;;;;5030879;28;20235;-90
2023/10/27 03:54:13;;;;;;;5.10;3.28;;;9.40;99.90;;;;;;5032590;28;20638;-90
2023/10/27 03:59:27;;;;;;;2.97;2.70;;;9.40;99.90;;;;;;4980452;28;20269;-90
2023/10/27 04:01:54;;;;;;;4.07;2.88;;;9.40;99.90;;;;;;5013650;28;20194;-90
2023/10/27 04:04:21;;;;;;;3.45;3.13;;;9.40;99.90;;;;;;5030477;28;20840;-90
2023/10/27 04:06:48;;;;;;;5.53;3.33;;;9.40;99.90;;;;;;5025498;28;20191;-90
2023/10/27 04:09:15;;;;;;;3.88;3.30;;;9.40;99.90;;;;;;5042142;28;20218;-90
2023/10/27 04:14:24;;;;;;;5.55;3.28;;;9.40;99.90;;;;;;5024285;28;20191;-90
2023/10/27 04:16:51;;;;;;;6.97;3.25;;;9.40;99.90;;;;;;5027974;28;20202;-90
2023/10/27 04:19:18;;;;;;;4.82;3.10;;;9.50;99.90;;;;;;5028766;28;20194;-90
2023/10/27 04:21:45;;;;;;;3.50;3.13;;;9.50;99.90;;;;;;5025617;28;20226;-90
2023/10/27 04:24:12;;;;;;;4.63;3.15;;;9.60;99.90;;;;;;5029424;28;20205;-90
2023/10/27 04:26:40;;;;;;;4.05;3.15;;;9.60;99.90;;;;;;5031418;28;20532;-89
2023/10/27 04:29:09;;;;;;;3.20;2.90;;;9.60;99.90;;;;;;5011277;28;20198;-89
2023/10/27 04:31:35;;;;;;;3.38;2.60;;;9.60;99.90;;;;;;5028648;28;20215;-89
2023/10/27 04:34:03;;;;;;;5.20;2.97;;;9.60;99.90;;;;;;5027792;28;20194;-89
2023/10/27 04:36:30;;;;;;;3.55;2.72;;;9.60;99.90;;;;;;5011418;28;20210;-91
2023/10/27 04:38:57;;;;;;;5.00;3.50;;;9.60;99.90;;;;;;5026822;28;20203;-89
2023/10/27 04:41:25;;;;;;;3.55;2.60;;;9.50;99.90;;;;;;5026929;28;20202;-89
2023/10/27 04:43:52;;;;;;;4.60;2.97;;;9.50;99.90;;;;;;5025581;28;20195;-89
2023/10/27 04:49:01;;;;;;;2.63;2.40;;;9.50;99.90;;;;;;5025993;28;20210;-88
2023/10/27 04:51:28;;;;;;;2.72;2.40;;;9.50;99.90;;;;;;5026957;28;20222;-90
2023/10/27 04:56:35;;;;;;;3.45;2.65;;;9.50;99.90;;;;;;5016574;28;20203;-88
2023/10/27 04:59:03;;;;;;;2.70;2.40;;;9.50;99.90;;;;;;5028442;28;20194;-89
2023/10/27 05:01:31;;;;;;;4.00;2.60;;;9.50;99.90;;;;;;5026793;28;20211;-91
2023/10/27 05:03:58;;;;;;;3.25;2.50;;;9.50;99.90;;;;;;5028752;28;20199;-88
2023/10/27 05:06:25;;;;;;;5.53;2.65;;;9.50;99.90;;;;;;5028389;28;20198;-89
2023/10/27 05:08:52;;;;;;;3.90;2.35;;;9.50;99.90;;;;;;5023292;28;20582;-88
2023/10/27 05:11:19;;;;;;;4.45;2.33;;;9.50;99.90;;;;;;5028958;28;20221;-88
2023/10/27 05:13:46;;;;;;;2.17;1.98;;;9.50;99.90;;;;;;5029141;28;20199;-88
2023/10/27 05:16:13;;;;;;;2.53;2.05;;;9.50;99.90;;;;;;5010926;28;20200;-88
2023/10/27 05:18:42;;;;;;;2.13;1.92;;;9.50;99.90;;;;;;5025088;28;20759;-89
2023/10/27 05:23:56;;;;;;;4.45;2.30;;;9.50;99.90;;;;;;5027129;28;20219;-87
2023/10/27 05:26:23;;;;;;;1.88;1.75;;;9.40;99.90;;;;;;5033319;28;20205;-87
2023/10/27 05:28:50;;;;;;;2.50;1.90;;;9.40;99.90;;;;;;5031025;28;20199;-87
2023/10/27 05:31:17;;;;;;;3.13;2.00;;;9.40;99.90;;;;;;5035676;28;20224;-87
2023/10/27 05:33:45;;;;;;;2.30;1.90;;;9.40;99.90;;;;;;5031137;28;20206;-88
2023/10/27 05:36:12;;;;;;;1.65;1.55;;;9.50;99.90;;;;;;5031754;28;20191;-88
2023/10/27 05:38:39;;;;;;;3.03;1.65;;;9.50;99.90;;;;;;5031424;28;20206;-87
2023/10/27 05:41:06;;;;;;;3.05;1.60;;;9.50;99.90;;;;;;5027942;28;20211;-88
2023/10/27 05:43:33;;;;;;;1.67;1.52;;;9.50;99.90;;;;;;5013106;28;21527;-87
2023/10/27 05:46:00;;;;;;;2.90;1.60;;;9.40;99.90;;;;;;5027302;28;20202;-87
2023/10/27 05:48:27;;;;;;;3.85;1.85;;;9.40;99.90;;;;;;5022532;28;20195;-87
2023/10/27 05:50:55;;;;;;;2.90;1.60;;;9.40;99.90;;;;;;5030593;28;20223;-86
2023/10/27 05:53:23;;;;;;;2.55;1.40;;;9.40;99.90;;;;;;5027409;28;20205;-87
2023/10/27 05:55:50;;;;;;;3.30;1.65;;;9.40;99.90;;;;;;5027221;28;20198;-87
2023/10/27 05:58:17;;;;;;;2.22;1.50;;;9.40;99.90;;;;;;5023527;28;20198;-87
2023/10/27 06:00:44;;;;;;;1.80;1.70;;;9.40;99.90;;;;;;5032362;28;20198;-87
2023/10/27 06:03:11;;;;;;;3.90;1.75;;;9.40;99.90;;;;;;5029410;28;20198;-87
2023/10/27 06:05:38;;;;;;;2.00;1.50;;;9.50;99.90;;;;;;5037805;28;20194;-87
2023/10/27 06:08:06;;;;;;;1.88;1.50;;;9.50;99.90;;;;;;5032438;28;20202;-87
2023/10/27 06:10:35;;;;;;;2.05;1.63;;;9.50;99.90;;;;;;5034023;28;20198;-87
2023/10/27 06:13:02;;;;;;;3.13;1.40;;;9.50;99.90;;;;;;5038540;28;20219;-86
2023/10/27 06:15:29;;;;;;;3.42;1.85;;;9.60;99.90;;;;;;5032111;28;20244;-87
2023/10/27 06:17:56;;;;;;;2.20;1.50;;;9.60;99.90;;;;;;5037147;28;20199;-86
2023/10/27 06:20:23;;;;;;;2.80;1.67;;;9.60;99.90;;;;;;5037589;28;20197;-87
2023/10/27 06:22:50;;;;;;;2.85;1.63;;;9.60;99.90;;;;;;5022638;28;20285;-87
2023/10/27 06:25:18;;;;;;;3.20;1.75;;;9.60;99.90;;;;;;5031906;28;20210;-87
2023/10/27 06:27:45;;;;;;;2.08;1.45;;;9.60;99.90;;;;;;5038481;28;20653;-87
2023/10/27 06:30:13;;;;;;;3.08;1.90;;;9.60;99.90;;;;;;5033268;28;20727;-87
2023/10/27 06:32:40;;;;;;;3.42;1.63;;;9.60;99.90;;;;;;5033033;28;20690;-87
2023/10/27 06:35:07;;;;;;;3.45;2.30;;;9.60;99.90;;;;;;5032056;28;20244;-87
2023/10/27 06:37:35;;;;;;;2.05;1.77;;;9.60;99.90;;;;;;5027543;28;20199;-87
2023/10/27 06:40:01;;;;;;;1.88;1.77;;;9.60;99.90;;;;;;5036640;28;20651;-87
2023/10/27 06:42:30;;;;;;;3.88;2.15;;;9.70;99.90;;;;;;5038553;28;20202;-87
2023/10/27 06:44:56;;;;;;;2.65;2.30;;;9.80;99.90;;;;;;5038496;28;20206;-87
2023/10/27 06:47:23;;;;;;;5.75;2.22;;;9.90;99.90;;;;;;5033245;28;20198;-87
2023/10/27 06:49:50;;;;;;;5.20;2.22;;;9.90;99.90;;;;;;5029383;28;20194;-86
2023/10/27 06:52:17;;;;;;;3.60;2.00;;;10.10;99.90;;;;;;5030943;28;20214;-87
2023/10/27 06:54:46;;;;;;;2.35;2.15;;;10.20;99.90;;;;;;5032381;28;20201;-86
2023/10/27 06:57:13;;;;;;;2.47;2.00;;;10.20;99.90;;;;;;5032168;28;20289;-87
2023/10/27 06:59:42;;;;;;;2.20;2.00;;;10.30;99.90;;;;;;5031434;28;20201;-86
2023/10/27 07:02:08;;;;;;;2.58;1.90;;;10.20;99.90;;;;;;5030536;28;20194;-86
2023/10/27 07:04:35;;;;;;;3.22;2.00;;;10.10;99.90;;;;;;5025836;28;20210;-87
2023/10/27 07:07:05;;;;;;;2.30;2.10;;;10.30;99.90;;;;;;5011380;28;20333;-86
2023/10/27 07:09:32;;;;;;;2.70;2.10;;;10.20;99.90;;;;;;5032435;28;20194;-86
2023/10/27 07:12:00;;;;;;;4.28;2.30;;;10.20;99.90;;;;;;5027828;28;20226;-87
2023/10/27 07:14:27;;;;;;;3.55;2.10;;;10.20;99.90;;;;;;5030410;28;20280;-87
2023/10/27 07:16:56;;;;;;;1.85;1.75;;;10.20;99.90;;;;;;5037969;28;20550;-87
2023/10/27 07:19:25;;;;;;;2.28;1.90;;;10.20;99.90;;;;;;5032291;28;20273;-87
2023/10/27 07:21:51;;;;;;;4.47;2.03;;;10.30;99.90;;;;;;5035075;28;20194;-86
2023/10/27 07:24:18;;;;;;;3.15;2.10;;;10.40;99.90;;;;;;5032277;28;20217;-86
2023/10/27 07:26:45;;;;;;;2.70;2.35;;;10.30;99.90;;;;;;5032794;28;20201;-87
2023/10/27 07:29:12;;;;;;;3.35;2.42;;;10.30;99.90;;;;;;5030762;28;20631;-86
2023/10/27 07:31:39;;;;;;;4.05;2.50;;;10.40;99.90;;;;;;5029673;28;20221;-87
2023/10/27 07:34:07;;;;;;;2.58;2.10;;;10.50;99.90;;;;;;5033978;28;20194;-87
2023/10/27 07:36:34;;;;;;;2.15;2.00;;;10.50;99.90;;;;;;5031547;28;20194;-87
2023/10/27 07:39:01;;;;;;;2.35;2.15;;;10.50;99.90;;;;;;5035335;28;20206;-86
2023/10/27 07:41:28;;;;;;;7.65;2.50;;;10.60;99.90;;;;;;5027697;28;20187;-87
2023/10/27 07:43:55;;;;;;;2.30;2.10;;;10.60;99.90;;;;;;5033719;28;20190;-87
2023/10/27 07:46:22;;;;;;;2.72;2.10;;;10.70;99.90;;;;;;5030629;28;20197;-87
2023/10/27 07:48:49;;;;;;;3.45;2.17;;;10.80;99.90;;;;;;5032508;28;20563;-86
2023/10/27 07:51:17;;;;;;;2.83;1.98;;;10.80;99.90;;;;;;5031931;28;20218;-86
2023/10/27 07:53:44;;;;;;;2.30;2.10;;;10.90;99.90;;;;;;5031526;28;20226;-86
2023/10/27 07:56:11;;;;;;;2.20;2.00;;;11.00;99.90;;;;;;5029991;28;20194;-87
2023/10/27 07:58:40;;;;;;;5.18;2.13;;;11.10;99.90;;;;;;5031719;28;20198;-86
2023/10/27 08:01:06;;;;;;;2.08;1.70;;;11.00;99.90;;;;;;5035411;28;20224;-87
2023/10/27 08:03:34;;;;;;;1.77;1.65;;;11.00;99.90;;;;;;5027638;28;20195;-87
2023/10/27 08:06:02;;;;;;;2.72;1.75;;;11.10;99.90;;;;;;5031984;28;20224;-86
2023/10/27 08:08:30;;;;;;;1.90;1.20;;;11.40;99.90;;;;;;5028942;28;20187;-86
2023/10/27 08:10:57;;;;;;;1.38;0.98;;;11.50;99.90;;;;;;5031060;28;20208;-86
2023/10/27 08:13:24;;;;;;;0.93;0.93;;;11.50;99.90;;;;;;5029656;28;20230;-87
2023/10/27 08:15:51;;;;;;;1.77;1.00;;;11.60;99.90;;;;;;5034753;28;20194;-86
2023/10/27 08:18:18;;;;;;;1.45;1.33;;;11.70;99.90;;;;;;5027198;28;20195;-86
2023/10/27 08:20:46;;;;;;;1.13;1.00;;;11.70;99.90;;;;;;5030020;28;20198;-87
2023/10/27 08:23:13;;;;;;;1.02;1.02;;;11.90;99.90;;;;;;5030428;28;20194;-86
2023/10/27 08:25:42;;;;;;;1.10;1.00;;;12.00;99.90;;;;;;5029784;28;20202;-87
2023/10/27 08:28:09;;;;;;;1.35;0.88;;;12.00;99.90;;;;;;5033433;28;20198;-86
2023/10/27 08:30:36;;;;;;;1.40;0.85;;;12.00;99.90;;;;;;5032140;28;20539;-86
2023/10/27 08:33:03;;;;;;;2.20;0.82;;;12.10;99.90;;;;;;5032653;28;20570;-87
2023/10/27 08:35:31;;;;;;;1.10;0.95;;;12.10;99.90;;;;;;5030618;28;20210;-86
2023/10/27 08:37:58;;;;;;;2.88;0.90;;;12.20;99.90;;;;;;5032739;28;20541;-86
2023/10/27 08:40:25;;;;;;;1.20;1.00;;;12.10;99.90;;;;;;5029681;28;20218;-87
2023/10/27 08:42:55;;;;;;;0.93;0.82;;;12.10;99.90;;;;;;5031054;28;20237;-87
2023/10/27 08:45:24;;;;;;;0.65;0.65;;;12.10;99.90;;;;;;5035194;28;20190;-86
2023/10/27 08:47:52;;;;;;;1.25;0.70;;;12.00;99.90;;;;;;5029643;28;20202;-87
2023/10/27 08:50:19;;;;;;;1.15;0.80;;;11.90;99.90;;;;;;5030548;28;20206;-86
2023/10/27 08:52:50;;;;;;;0.70;0.70;;;11.80;99.90;;;;;;5026553;28;20222;-87
2023/10/27 08:55:20;;;;;;;0.80;0.73;;;11.80;99.90;;;;;;5029811;28;20198;-86
2023/10/27 08:57:47;;;;;;;0.80;0.70;;;11.80;99.90;;;;;;5026125;28;20635;-86
2023/10/27 09:00:17;;;;;;;0.80;0.80;;;11.80;99.90;;;;;;5035127;28;20201;-86
2023/10/27 09:02:44;;;;;;;0.60;0.60;;;11.70;99.90;;;;;;5028242;28;20195;-86
2023/10/27 09:05:11;;;;;;;0.73;0.68;;;11.80;99.90;;;;;;5025981;28;20665;-86
2023/10/27 09:07:39;;;;;;;1.27;0.75;;;11.90;99.90;;;;;;5029630;28;20551;-86
2023/10/27 09:10:07;;;;;;;0.70;0.70;;;12.00;99.90;;;;;;5028258;28;20202;-86
2023/10/27 09:12:36;;;;;;;0.88;0.88;;;12.10;99.90;;;;;;5026667;28;20253;-86
2023/10/27 09:15:05;;;;;;;1.55;0.80;;;12.20;99.90;;;;;;5026425;28;20198;-86
2023/10/27 09:17:51;;;;;;;0.80;0.80;;;12.20;99.90;;;;;;5032026;28;20207;-86
2023/10/27 09:20:20;;;;;;;3.72;0.80;;;12.20;99.90;;;;;;5027733;28;20718;-86
2023/10/27 09:22:56;;;;;;;1.13;0.70;;;12.20;99.90;;;;;;5035094;28;20198;-86
2023/10/27 09:25:29;;;;;;;1.75;0.68;;;12.10;99.90;;;;;;5029106;28;20662;-86
2023/10/27 09:27:58;;;;;;;3.13;0.95;;;12.10;99.90;;;;;;5029704;28;20189;-86
2023/10/27 09:30:29;;;;;;;0.60;0.60;;;12.20;99.90;;;;;;5029264;28;20889;-87
2023/10/27 09:33:12;;;;;;;0.65;0.60;;;12.20;99.90;;;;;;5023550;28;20272;-87
2023/10/27 09:35:38;;;;;;;3.10;0.88;;;12.10;99.90;;;;;;5033664;28;20198;-87
2023/10/27 09:38:06;;;;;;;1.35;0.70;;;12.10;99.90;;;;;;5033830;28;20206;-86
2023/10/27 09:40:35;;;;;;;0.73;0.57;;;12.00;99.90;;;;;;5030401;28;20583;-86
2023/10/27 09:43:05;;;;;;;1.02;0.90;;;12.10;99.90;;;;;;5045239;28;20199;-86
2023/10/27 09:45:34;;;;;;;1.75;0.75;;;12.00;99.90;;;;;;5049002;28;20203;-87
2023/10/27 09:48:05;;;;;;;1.10;0.70;;;12.00;99.90;;;;;;5042214;28;20264;-86
2023/10/27 09:50:33;;;;;;;1.25;0.95;;;12.00;99.90;;;;;;5033874;28;20195;-87
2023/10/27 09:53:01;;;;;;;0.85;0.82;;;12.00;99.90;;;;;;5029566;28;20678;-86
2023/10/27 09:55:28;;;;;;;2.10;0.80;;;12.10;99.90;;;;;;5035735;28;20226;-86
2023/10/27 09:57:56;;;;;;;2.20;0.70;;;12.20;99.90;;;;;;5029440;28;20199;-86
2023/10/27 10:00:27;;;;;;;0.60;0.60;;;12.10;99.90;;;;;;5033122;28;20205;-87
2023/10/27 10:02:55;;;;;;;0.98;0.85;;;12.10;99.90;;;;;;5028790;28;20198;-87
2023/10/27 10:05:24;;;;;;;0.60;0.60;;;12.60;99.70;;;;;;5029917;28;20194;-87
2023/10/27 10:07:56;;;;;;;0.93;0.80;;;13.20;98.40;;;;;;5031815;28;20195;-87
2023/10/27 10:10:29;;;;;;;0.77;0.70;;;13.90;93.80;;;;;;5029352;28;20222;-87
2023/10/27 10:13:08;;;;;;;1.15;0.80;;;14.50;92.80;;;;;;5033728;28;20646;-87
2023/10/27 10:15:36;;;;;;;1.98;0.90;;;14.80;90.70;;;;;;5029120;28;20197;-87
2023/10/27 10:18:04;;;;;;;4.93;0.80;;;15.10;91.50;;;;;;5033678;28;20197;-87
2023/10/27 10:21:00;;;;;;;1.30;0.88;;;15.60;88.00;;;;;;5031349;28;20222;-87
2023/10/27 10:24:00;;;;;;;1.38;0.90;;;16.00;86.90;;;;;;5008735;28;20214;-87
2023/10/27 10:27:00;;;;;;;2.83;0.93;;;16.30;70.60;;;;;;5026701;28;20206;-86
2023/10/27 10:29:32;;;;;;;2.25;0.75;;;15.60;57.90;;;;;;5032596;28;20199;-86
2023/10/27 10:32:30;;;;;;;1.05;0.80;;;15.10;74.90;;;;;;5039485;28;20202;-85
2023/10/27 10:35:21;;;;;;;1.48;1.00;;;14.90;76.70;;;;;;5028389;28;20880;-86
2023/10/27 10:37:51;;;;;;;1.10;0.88;;;14.80;79.10;;;;;;5028344;28;20687;-84
2023/10/27 10:40:21;;;;;;;2.15;1.10;;;14.70;82.90;;;;;;5029792;28;20198;-84
2023/10/27 10:43:20;;;;;;;1.27;1.00;;;14.80;87.00;;;;;;5033909;28;20277;-84
2023/10/27 10:45:49;;;;;;;1.15;0.90;;;15.00;81.50;;;;;;5031920;28;20194;-85
2023/10/27 10:48:17;;;;;;;1.00;0.80;;;15.00;76.20;;;;;;5033874;28;20195;-86
2023/10/27 10:50:45;;;;;;;1.85;0.90;;;14.70;79.00;;;;;;5030925;28;20674;-86
2023/10/27 10:53:16;;;;;;;0.98;0.65;;;14.80;81.60;;;;;;5034442;28;20218;-86
2023/10/27 10:55:45;;;;;;;1.15;0.93;;;14.90;73.20;;;;;;5030556;28;20253;-86
2023/10/27 10:58:12;;;;;;;5.22;0.90;;;15.00;70.90;;;;;;5030115;28;20631;-86
2023/10/27 11:00:38;;;;;;;2.40;0.95;;;14.80;65.20;;;;;;5014933;28;20218;-86
2023/10/27 11:03:09;;;;;;;4.20;1.17;;;14.70;66.60;;;;;;5034597;28;20214;-88
2023/10/27 11:05:36;;;;;;;2.15;0.88;;;14.60;69.30;;;;;;5030910;28;20278;-87
2023/10/27 11:08:04;;;;;;;1.50;0.80;;;14.30;64.80;;;;;;5030794;28;20202;-86
2023/10/27 11:10:35;;;;;;;2.30;0.73;;;14.10;68.70;;;;;;5028834;28;20218;-87
2023/10/27 11:13:04;;;;;;;1.10;0.80;;;14.10;73.80;;;;;;5029515;28;20706;-87
2023/10/27 11:15:48;;;;;;;3.28;1.00;;;14.10;76.60;;;;;;5029035;28;20207;-87
2023/10/27 11:18:16;;;;;;;2.75;0.88;;;14.10;76.60;;;;;;5030278;28;20190;-87
2023/10/27 11:20:44;;;;;;;1.63;0.90;;;14.20;73.60;;;;;;5025577;28;20197;-87
2023/10/27 11:23:12;;;;;;;3.33;0.85;;;14.10;75.20;;;;;;5031831;28;20206;-87
2023/10/27 11:25:41;;;;;;;2.05;1.48;;;14.30;76.80;;;;;;5029332;28;20586;-89
2023/10/27 11:28:22;;;;;;;1.52;1.05;;;14.50;76.20;;;;;;5030136;28;20201;-87
2023/10/27 11:31:02;;;;;;;4.18;0.90;;;14.80;69.50;;;;;;5035925;28;20186;-89
2023/10/27 11:33:29;;;;;;;2.65;1.05;;;14.80;58.00;;;;;;5030466;28;20302;-88
2023/10/27 11:35:57;;;;;;;4.22;1.20;;;14.80;59.20;;;;;;5023938;28;20218;-89
2023/10/27 11:38:30;;;;;;;2.90;1.20;;;14.70;55.10;;;;;;5022539;28;20210;-89
2023/10/27 11:41:14;;;;;;;2.78;1.10;;;14.80;57.00;;;;;;5026481;28;20244;-85
2023/10/27 11:43:41;;;;;;;2.15;0.90;;;14.70;55.60;;;;;;5026151;28;20544;-85
2023/10/27 11:46:12;;;;;;;1.00;0.80;;;14.80;56.90;;;;;;5028895;28;20214;-87
2023/10/27 11:48:39;;;;;;;1.98;0.85;;;14.90;56.20;;;;;;5029730;28;20202;-87
2023/10/27 11:51:07;;;;;;;2.55;0.95;;;15.00;51.40;;;;;;5027746;28;20210;-86
2023/10/27 11:53:35;;;;;;;1.23;0.93;;;15.00;51.40;;;;;;5031292;28;20221;-86
2023/10/27 11:56:04;;;;;;;1.95;0.90;;;15.20;54.20;;;;;;5029091;28;20655;-85
2023/10/27 11:58:32;;;;;;;2.65;1.13;;;15.30;48.20;;;;;;5027427;28;20635;-85
2023/10/27 12:00:59;;;;;;;3.03;0.90;;;15.50;49.30;;;;;;5031094;28;20191;-86
2023/10/27 12:03:26;;;;;;;2.63;0.90;;;15.30;47.90;;;;;;5030995;28;20202;-85
2023/10/27 12:05:53;;;;;;;2.13;1.10;;;15.00;48.20;;;;;;5029178;28;20241;-86
2023/10/27 12:08:21;;;;;;;1.63;0.80;;;14.80;51.20;;;;;;5030437;28;20206;-86
2023/10/27 12:10:51;;;;;;;2.63;1.00;;;14.70;51.10;;;;;;5029622;28;20674;-86
2023/10/27 12:13:18;;;;;;;2.75;0.95;;;14.50;50.90;;;;;;5029462;28;20261;-86
2023/10/27 12:15:47;;;;;;;3.03;0.93;;;14.40;50.80;;;;;;5028093;28;20663;-85
2023/10/27 12:18:15;;;;;;;1.50;1.00;;;14.40;52.70;;;;;;5029614;28;20207;-86
2023/10/27 12:20:43;;;;;;;1.58;0.90;;;14.40;55.20;;;;;;5026230;28;20654;-85
2023/10/27 12:23:10;;;;;;;1.58;1.10;;;14.40;52.00;;;;;;5030333;28;20201;-86
2023/10/27 12:25:38;;;;;;;5.85;1.10;;;14.30;54.60;;;;;;5028945;28;20205;-86
2023/10/27 12:28:06;;;;;;;0.77;0.70;;;14.20;54.60;;;;;;5033116;28;20206;-86
2023/10/27 12:30:33;;;;;;;3.00;1.05;;;14.30;56.70;;;;;;5025299;28;20208;-85
2023/10/27 12:33:03;;;;;;;1.75;0.90;;;14.20;55.90;;;;;;5025474;28;20851;-86
2023/10/27 12:35:30;;;;;;;1.45;0.88;;;14.20;55.50;;;;;;5027768;28;20198;-86
2023/10/27 12:37:57;;;;;;;1.48;0.80;;;14.20;55.90;;;;;;5010756;28;20195;-85
2023/10/27 12:40:24;;;;;;;1.45;0.80;;;14.20;53.80;;;;;;5030352;28;20411;-86
2023/10/27 12:42:51;;;;;;;1.70;0.73;;;14.20;57.80;;;;;;5030760;28;20198;-86
2023/10/27 12:45:18;;;;;;;5.25;1.20;;;14.20;54.60;;;;;;5024683;28;20293;-87
2023/10/27 12:47:47;;;;;;;2.40;1.08;;;14.00;54.90;;;;;;5026778;28;20190;-86
2023/10/27 12:50:15;;;;;;;3.17;0.80;;;13.90;58.10;;;;;;5028417;28;20206;-86
2023/10/27 12:52:43;;;;;;;2.38;0.95;;;13.80;59.50;;;;;;5028224;28;20578;-86
2023/10/27 12:55:11;;;;;;;1.38;0.90;;;13.80;61.00;;;;;;5028348;28;20225;-85
2023/10/27 12:57:38;;;;;;;1.88;0.93;;;13.80;60.70;;;;;;5025513;28;20191;-86
2023/10/27 13:00:10;;;;;;;0.90;0.80;;;13.80;59.90;;;;;;5030918;28;20554;-86
2023/10/27 13:02:38;;;;;;;1.45;0.90;;;13.70;60.50;;;;;;5031024;28;20191;-86
2023/10/27 13:05:05;;;;;;;1.73;0.80;;;13.60;64.60;;;;;;5010482;28;20213;-86
2023/10/27 13:07:34;;;;;;;1.45;0.77;;;13.50;70.60;;;;;;5025357;28;20646;-86
2023/10/27 13:10:02;;;;;;;1.25;0.63;;;13.50;70.40;;;;;;5029709;28;20199;-86
2023/10/27 13:12:29;;;;;;;5.05;1.02;;;13.50;70.40;;;;;;5027663;28;20205;-86
2023/10/27 13:14:57;;;;;;;2.13;1.00;;;13.30;72.80;;;;;;5028683;28;20206;-86
2023/10/27 13:17:24;;;;;;;1.25;1.00;;;13.30;76.10;;;;;;5029037;28;20252;-86
2023/10/27 13:19:51;;;;;;;3.03;0.95;;;13.30;76.10;;;;;;5023376;28;20197;-86
2023/10/27 13:22:22;;;;;;;2.40;1.10;;;13.40;76.20;;;;;;5024453;28;20213;-86
2023/10/27 13:24:50;;;;;;;2.28;0.82;;;13.50;76.20;;;;;;5027641;28;20198;-86
2023/10/27 13:27:17;;;;;;;2.10;0.90;;;13.50;76.30;;;;;;5027273;28;20194;-86
2023/10/27 13:29:44;;;;;;;1.95;0.90;;;13.60;77.20;;;;;;5029371;28;20197;-86
2023/10/27 13:32:11;;;;;;;1.02;0.93;;;13.70;74.00;;;;;;5026026;28;20202;-86
2023/10/27 13:34:38;;;;;;;1.15;0.90;;;13.70;73.80;;;;;;5024910;28;20567;-86
2023/10/27 13:37:05;;;;;;;1.35;0.82;;;13.70;76.40;;;;;;5031487;28;20218;-86
2023/10/27 13:39:34;;;;;;;0.90;0.82;;;13.70;72.40;;;;;;5027964;28;20225;-85
2023/10/27 13:42:02;;;;;;;1.20;0.90;;;13.70;73.50;;;;;;5028212;28;20199;-86